Terminal Aerodrome Forecast
Issued by NWS Louisville, KY

Home | Current Version | Previous Version | Text Only | Print | Product List | Glossary On
Versions: 1 2 3 4 5 6 7 8 9 10 11 12 13 14 15 16
000
FTUS43 KLMK 081730
TAFLEX
TAF
KLEX 081730Z 0818/0918 28011G18KT P6SM SCT030
     FM090200 29008KT P6SM BKN025
     FM091600 27008KT P6SM SCT030=

USA.gov is the U.S. government's official web portal to all federal, state and local government web resources and services.